Time;durP1;ratioP1;P1;durP2;ratioP2;P2;SDS_P1;SDS_P2;PMS_P1;PMS_P2;Temp;Humidity;BMP_temperature;BMP_pressure;BME280_temperature;BME280_humidity;BME280_pressure;Samples;Min_cycle;Max_cycle;Signal;HPM_P1;HPM_P2
2023/05/08 00:01:32;;;;;;;2.40;1.10;;;;;;;6.86;100.00;100921.60;105389;1253;61920;-52
2023/05/08 00:04:00;;;;;;;3.80;1.20;;;;;;;6.87;100.00;100922.70;105453;1257;74761;-57
2023/05/08 00:06:27;;;;;;;2.10;1.00;;;;;;;6.88;100.00;100920.33;105386;1258;67336;-52
2023/05/08 00:08:54;;;;;;;2.90;1.00;;;;;;;6.90;100.00;100921.52;106132;1254;74227;-52
2023/05/08 00:11:22;;;;;;;2.90;0.90;;;;;;;6.95;100.00;100918.09;105465;1254;61229;-52
2023/05/08 00:13:49;;;;;;;3.10;1.30;;;;;;;6.99;100.00;100922.42;105823;1254;61726;-53
2023/05/08 00:16:16;;;;;;;2.10;1.00;;;;;;;7.02;100.00;100930.30;105040;1257;74757;-52
2023/05/08 00:18:44;;;;;;;3.00;1.00;;;;;;;7.02;100.00;100930.53;105942;1254;68629;-53
2023/05/08 00:21:11;;;;;;;2.10;0.90;;;;;;;7.02;100.00;100927.26;105376;1254;74288;-52
2023/05/08 00:23:38;;;;;;;3.20;0.90;;;;;;;7.02;100.00;100934.05;105432;1253;61103;-52
2023/05/08 00:26:05;;;;;;;2.10;1.00;;;;;;;6.99;100.00;100936.58;105540;1254;62317;-56
2023/05/08 00:28:33;;;;;;;1.90;0.90;;;;;;;6.98;100.00;100935.95;105767;1254;73951;-52
2023/05/08 00:31:01;;;;;;;4.10;0.90;;;;;;;6.99;100.00;100934.89;105636;1257;68858;-52
2023/05/08 00:33:28;;;;;;;2.60;1.10;;;;;;;6.97;100.00;100936.95;105413;1254;73538;-52
2023/05/08 00:36:02;;;;;;;3.40;0.90;;;;;;;6.95;100.00;100936.23;105517;1253;61228;-53
2023/05/08 00:38:30;;;;;;;2.10;0.90;;;;;;;6.92;100.00;100933.61;105319;1252;61210;-52
2023/05/08 00:40:57;;;;;;;2.50;1.00;;;;;;;6.88;100.00;100933.45;105662;1252;74488;-52
2023/05/08 00:43:27;;;;;;;2.30;0.90;;;;;;;6.85;100.00;100928.73;105413;1254;68936;-52
2023/05/08 00:45:55;;;;;;;5.00;1.00;;;;;;;6.83;100.00;100931.20;105521;1255;73165;-54
2023/05/08 00:48:22;;;;;;;1.90;0.90;;;;;;;6.80;100.00;100930.38;105413;1260;60147;-53
2023/05/08 00:50:50;;;;;;;2.80;0.90;;;;;;;6.80;100.00;100932.42;105627;1253;60811;-52
2023/05/08 00:53:21;;;;;;;3.10;1.00;;;;;;;6.81;100.00;100932.19;105485;1254;73552;-53
2023/05/08 00:55:50;;;;;;;1.50;0.80;;;;;;;6.81;100.00;100929.81;105472;1257;68671;-53
2023/05/08 00:58:19;;;;;;;2.60;1.20;;;;;;;6.79;100.00;100932.39;105379;1254;73935;-54
2023/05/08 01:00:46;;;;;;;2.60;1.00;;;;;;;6.76;100.00;100934.55;105361;1258;60998;-55
2023/05/08 01:03:13;;;;;;;1.80;0.90;;;;;;;6.72;100.00;100935.09;106238;1254;61967;-54
2023/05/08 01:05:42;;;;;;;2.20;1.10;;;;;;;6.69;100.00;100943.00;105937;1251;74587;-53
2023/05/08 01:08:09;;;;;;;2.30;1.40;;;;;;;6.65;100.00;100945.42;105411;1254;68665;-55
2023/05/08 01:10:53;;;;;;;2.40;1.10;;;;;;;6.62;100.00;100947.14;105802;1253;74590;-55
2023/05/08 01:13:57;;;;;;;2.40;1.10;;;;;;;6.57;100.00;100948.58;104915;1272;60450;-55
2023/05/08 01:16:44;;;;;;;4.10;1.50;;;;;;;6.51;100.00;100950.83;105610;1253;61716;-54
2023/05/08 01:19:57;;;;;;;2.50;1.00;;;;;;;6.46;100.00;100951.83;105278;1254;73385;-53
2023/05/08 01:23:06;;;;;;;5.70;1.20;;;;;;;6.38;100.00;100955.97;105415;1259;67411;-57
2023/05/08 01:25:52;;;;;;;3.40;1.50;;;;;;;6.31;100.00;100955.23;105179;1254;71783;-54
2023/05/08 01:28:44;;;;;;;2.60;1.40;;;;;;;6.25;100.00;100963.75;105442;1252;61421;-53
2023/05/08 01:31:15;;;;;;;3.10;1.40;;;;;;;6.17;100.00;100961.32;105789;1253;62010;-59
2023/05/08 01:34:05;;;;;;;2.00;1.10;;;;;;;6.12;100.00;100959.94;105424;1256;75096;-53
2023/05/08 01:37:02;;;;;;;5.40;1.30;;;;;;;6.04;100.00;100962.61;106086;1254;68734;-57
2023/05/08 01:39:42;;;;;;;4.60;1.00;;;;;;;5.98;100.00;100960.59;105305;1258;74138;-53
2023/05/08 01:42:17;;;;;;;2.70;1.30;;;;;;;5.95;100.00;100961.55;105565;1256;60848;-58
2023/05/08 01:44:46;;;;;;;2.40;1.10;;;;;;;5.93;100.00;100965.05;105487;1254;61859;-59
2023/05/08 01:47:13;;;;;;;2.10;0.80;;;;;;;5.90;100.00;100961.64;105344;1258;75428;-53
2023/05/08 01:49:47;;;;;;;3.40;1.50;;;;;;;5.88;100.00;100963.23;105291;1260;67754;-55
2023/05/08 01:52:17;;;;;;;3.50;1.10;;;;;;;5.86;100.00;100960.60;105275;1254;73016;-53
2023/05/08 01:54:55;;;;;;;2.60;1.30;;;;;;;5.84;100.00;100960.45;105566;1257;60828;-58
2023/05/08 01:57:23;;;;;;;3.60;1.20;;;;;;;5.83;100.00;100961.02;105113;1253;60833;-54
2023/05/08 01:59:50;;;;;;;2.50;1.20;;;;;;;5.84;100.00;100958.93;105211;1254;74602;-54
2023/05/08 02:02:17;;;;;;;2.80;1.20;;;;;;;5.84;100.00;100961.63;105460;1258;68634;-56
2023/05/08 02:04:46;;;;;;;2.90;1.30;;;;;;;5.86;100.00;100959.76;105459;1253;73556;-53
2023/05/08 02:07:14;;;;;;;2.80;1.40;;;;;;;5.85;100.00;100959.59;105312;1254;61046;-53
2023/05/08 02:09:42;;;;;;;2.80;1.40;;;;;;;5.88;100.00;100958.73;105572;1252;61743;-53
2023/05/08 02:12:09;;;;;;;3.20;1.60;;;;;;;5.89;100.00;100965.22;105957;1258;75382;-53
2023/05/08 02:14:36;;;;;;;2.30;1.20;;;;;;;5.90;100.00;100961.67;105739;1253;67511;-55
2023/05/08 02:17:05;;;;;;;3.90;1.30;;;;;;;5.92;100.00;100963.52;105334;1260;74413;-54
2023/05/08 02:19:32;;;;;;;3.90;1.30;;;;;;;5.95;100.00;100970.68;105543;1253;61502;-52
2023/05/08 02:22:00;;;;;;;4.20;1.50;;;;;;;5.97;100.00;100971.70;105397;1255;61822;-52
2023/05/08 02:24:27;;;;;;;3.70;1.30;;;;;;;6.00;100.00;100971.33;105501;1252;75298;-52
2023/05/08 02:26:54;;;;;;;2.30;1.10;;;;;;;6.02;100.00;100972.71;105511;1253;69101;-57
2023/05/08 02:29:21;;;;;;;2.70;1.20;;;;;;;6.04;100.00;100971.66;105328;1260;73452;-53
2023/05/08 02:31:49;;;;;;;3.90;1.30;;;;;;;6.05;100.00;100971.48;105825;1253;61757;-53
2023/05/08 02:34:16;;;;;;;3.20;1.30;;;;;;;6.08;100.00;100974.21;105537;1259;60351;-52
2023/05/08 02:36:43;;;;;;;3.20;1.20;;;;;;;6.11;100.00;100978.60;105789;1257;75340;-53
2023/05/08 02:39:12;;;;;;;4.20;1.40;;;;;;;6.15;100.00;100976.36;105476;1259;68795;-52
2023/05/08 02:41:40;;;;;;;4.60;1.30;;;;;;;6.19;100.00;100974.98;105712;1260;74303;-53
2023/05/08 02:44:07;;;;;;;2.00;1.20;;;;;;;6.22;100.00;100978.33;105301;1259;60538;-54
2023/05/08 02:46:40;;;;;;;3.10;1.30;;;;;;;6.26;100.00;100980.21;105738;1253;62086;-55
2023/05/08 02:49:12;;;;;;;2.40;1.30;;;;;;;6.30;100.00;100980.92;105950;1252;75433;-57
2023/05/08 02:51:42;;;;;;;;;;;;;;;6.34;100.00;100983.61;105955;1253;68367;-54
2023/05/08 02:54:17;;;;;;;2.30;1.10;;;;;;;6.38;100.00;100988.48;105404;1253;74251;-57
2023/05/08 02:56:54;;;;;;;2.50;1.00;;;;;;;6.42;100.00;100991.59;105509;1260;60905;-60
2023/05/08 02:59:36;;;;;;;2.70;1.10;;;;;;;6.46;100.00;100990.00;105661;1257;60946;-55
2023/05/08 03:02:25;;;;;;;2.40;1.00;;;;;;;6.50;100.00;100993.08;105843;1254;74399;-55
2023/05/08 03:04:54;;;;;;;2.40;1.00;;;;;;;6.55;100.00;100993.14;105095;1256;68540;-55
2023/05/08 03:07:23;;;;;;;2.00;1.00;;;;;;;6.60;100.00;100995.08;105171;1254;73688;-56
2023/05/08 03:09:54;;;;;;;4.10;1.20;;;;;;;6.64;100.00;100995.24;105400;1253;60608;-53
2023/05/08 03:12:23;;;;;;;2.90;1.10;;;;;;;6.69;100.00;101000.52;105854;1252;60945;-57
2023/05/08 03:15:05;;;;;;;4.30;1.20;;;;;;;6.73;100.00;101003.95;105065;1260;75114;-53
2023/05/08 03:17:34;;;;;;;3.10;1.30;;;;;;;6.77;100.00;101006.54;105038;1253;68656;-54
2023/05/08 03:20:04;;;;;;;2.20;0.80;;;;;;;6.82;100.00;101009.16;105483;1257;74331;-53
2023/05/08 03:22:31;;;;;;;2.90;1.20;;;;;;;6.87;100.00;101010.40;105243;1254;60766;-53
2023/05/08 03:24:59;;;;;;;3.70;1.20;;;;;;;6.93;100.00;101015.55;105506;1258;61804;-55
2023/05/08 03:27:27;;;;;;;4.50;1.10;;;;;;;6.99;100.00;101015.70;105534;1259;75149;-53
2023/05/08 03:29:55;;;;;;;3.00;1.00;;;;;;;7.05;100.00;101018.05;105323;1253;66964;-56
2023/05/08 03:32:26;;;;;;;2.10;0.90;;;;;;;7.13;100.00;101024.98;105489;1258;73346;-58
2023/05/08 03:34:54;;;;;;;3.20;1.00;;;;;;;7.20;100.00;101021.04;105172;1260;60898;-53
2023/05/08 03:37:21;;;;;;;1.80;0.80;;;;;;;7.25;100.00;101019.58;105358;1255;62209;-53
2023/05/08 03:39:50;;;;;;;2.30;0.90;;;;;;;7.29;100.00;101020.15;105608;1254;75192;-54
2023/05/08 03:42:20;;;;;;;4.50;1.00;;;;;;;7.36;100.00;101018.87;105860;1253;67488;-58
2023/05/08 03:44:52;;;;;;;3.50;1.20;;;;;;;7.43;100.00;101018.41;105174;1255;73554;-54
2023/05/08 03:47:23;;;;;;;3.00;1.10;;;;;;;7.49;100.00;101017.17;105803;1254;61309;-53
2023/05/08 03:49:50;;;;;;;2.80;1.20;;;;;;;7.53;100.00;101020.02;105564;1251;62487;-53
2023/05/08 03:52:17;;;;;;;5.00;1.10;;;;;;;7.58;100.00;101016.14;105769;1251;73718;-58
2023/05/08 03:54:45;;;;;;;2.50;1.00;;;;;;;7.64;100.00;101017.32;105837;1251;67653;-54
2023/05/08 03:57:13;;;;;;;1.50;0.80;;;;;;;7.68;100.00;101022.45;105375;1253;74018;-53
2023/05/08 03:59:53;;;;;;;2.30;0.80;;;;;;;7.69;100.00;101027.02;105861;1255;60771;-58
2023/05/08 04:02:37;;;;;;;2.20;1.00;;;;;;;7.68;100.00;101023.95;105489;1260;60811;-55
2023/05/08 04:05:24;;;;;;;3.40;1.10;;;;;;;7.69;100.00;101026.14;105153;1255;74892;-54
2023/05/08 04:11:53;;;;;;;3.80;1.00;;;;;;;7.77;100.00;101027.30;105226;1253;75250;-52
2023/05/08 04:14:23;;;;;;;2.70;0.90;;;;;;;7.80;100.00;101030.41;105497;1253;61930;-55
2023/05/08 04:16:51;;;;;;;1.90;0.80;;;;;;;7.83;100.00;101028.27;105550;1253;62758;-53
2023/05/08 04:19:29;;;;;;;2.20;0.70;;;;;;;7.84;100.00;101036.34;105723;1258;76479;-53
2023/05/08 04:22:03;;;;;;;3.30;1.50;;;;;;;7.85;100.00;101033.81;105929;1254;69374;-55
2023/05/08 04:24:31;;;;;;;2.40;0.90;;;;;;;7.85;100.00;101037.41;105680;1258;74161;-57
2023/05/08 04:26:58;;;;;;;2.00;0.80;;;;;;;7.85;100.00;101043.64;105537;1258;61000;-53
2023/05/08 04:29:25;;;;;;;2.00;0.90;;;;;;;7.86;100.00;101046.18;105552;1253;62529;-54
2023/05/08 04:31:53;;;;;;;3.80;1.20;;;;;;;7.89;100.00;101045.35;105942;1255;75567;-58
2023/05/08 04:34:20;;;;;;;3.30;1.20;;;;;;;7.92;100.00;101046.50;105396;1258;68565;-55
2023/05/08 04:36:48;;;;;;;3.70;1.00;;;;;;;7.95;100.00;101045.95;105666;1254;75276;-53
2023/05/08 04:39:17;;;;;;;2.40;1.00;;;;;;;8.00;100.00;101045.15;105621;1256;60911;-54
2023/05/08 04:41:44;;;;;;;3.20;1.00;;;;;;;8.04;100.00;101047.19;105249;1257;61775;-53
2023/05/08 04:44:12;;;;;;;2.20;1.00;;;;;;;8.10;100.00;101044.38;105742;1259;76335;-59
2023/05/08 04:46:39;;;;;;;3.40;1.10;;;;;;;8.12;100.00;101041.77;105054;1253;69607;-52
2023/05/08 04:49:06;;;;;;;5.50;1.20;;;;;;;8.15;100.00;101039.75;105276;1253;75440;-54
2023/05/08 04:51:34;;;;;;;2.20;0.90;;;;;;;8.18;99.77;101036.02;105059;1253;61949;-53
2023/05/08 04:54:02;;;;;;;3.80;1.30;;;;;;;8.23;99.14;101040.73;105786;1253;62629;-56
2023/05/08 04:56:29;;;;;;;7.00;1.20;;;;;;;8.31;96.72;101042.20;105550;1258;76390;-53
2023/05/08 04:58:57;;;;;;;3.80;1.30;;;;;;;8.38;94.98;101045.85;105729;1251;69556;-53
2023/05/08 05:01:24;;;;;;;2.70;1.10;;;;;;;8.45;96.00;101043.46;105772;1259;75238;-53
2023/05/08 05:03:51;;;;;;;3.60;0.90;;;;;;;8.53;93.61;101045.25;106314;1257;62461;-57
2023/05/08 05:06:19;;;;;;;2.60;1.00;;;;;;;8.60;91.84;101042.67;105774;1257;63341;-59
2023/05/08 05:08:46;;;;;;;4.30;1.20;;;;;;;8.66;91.99;101045.38;105555;1251;74838;-54
2023/05/08 05:11:14;;;;;;;4.80;1.20;;;;;;;8.69;87.67;101047.68;105457;1253;69940;-53
2023/05/08 05:13:41;;;;;;;2.20;0.80;;;;;;;8.70;84.96;101047.42;105258;1258;73794;-54
2023/05/08 05:16:08;;;;;;;2.60;0.80;;;;;;;8.70;87.37;101046.52;104889;1256;60890;-54
2023/05/08 05:18:36;;;;;;;3.20;1.50;;;;;;;8.74;88.48;101044.94;105269;1258;62341;-54
2023/05/08 05:21:03;;;;;;;1.90;1.00;;;;;;;8.81;88.02;101043.31;105641;1253;76246;-55
2023/05/08 05:23:30;;;;;;;4.30;0.80;;;;;;;8.92;87.60;101040.21;105567;1253;67699;-55
2023/05/08 05:25:59;;;;;;;4.30;1.00;;;;;;;9.01;85.11;101030.73;105812;1258;74823;-54
2023/05/08 05:28:27;;;;;;;2.80;1.00;;;;;;;9.13;79.95;101029.30;104837;1261;60648;-54
2023/05/08 05:30:54;;;;;;;3.20;1.00;;;;;;;9.21;76.55;101029.48;105299;1254;61480;-54
2023/05/08 05:33:21;;;;;;;2.90;1.20;;;;;;;9.29;77.00;101033.52;105704;1251;76321;-53
2023/05/08 05:35:49;;;;;;;2.50;1.00;;;;;;;9.42;77.64;101033.55;105353;1258;68601;-54
2023/05/08 05:38:17;;;;;;;3.60;1.00;;;;;;;9.60;73.52;101040.38;105631;1257;75225;-58
2023/05/08 05:40:44;;;;;;;4.40;0.90;;;;;;;9.80;68.94;101040.48;105022;1253;63185;-54
2023/05/08 05:43:11;;;;;;;2.80;1.00;;;;;;;10.02;67.10;101041.67;105394;1253;62860;-53
2023/05/08 05:45:39;;;;;;;1.90;0.80;;;;;;;10.25;68.45;101043.38;105065;1252;76121;-54
2023/05/08 05:48:06;;;;;;;1.90;0.90;;;;;;;10.62;66.84;101035.01;106187;1251;68343;-54
2023/05/08 05:50:34;;;;;;;2.40;0.90;;;;;;;11.02;65.67;101033.05;105532;1257;73884;-55
2023/05/08 05:53:01;;;;;;;2.20;0.80;;;;;;;11.42;63.36;101032.50;105486;1256;61742;-57
2023/05/08 05:55:28;;;;;;;2.50;0.90;;;;;;;11.81;58.97;101031.11;105475;1253;61667;-55
2023/05/08 05:57:55;;;;;;;5.00;0.90;;;;;;;12.11;56.16;101029.55;105339;1256;76769;-55
2023/05/08 06:00:22;;;;;;;2.40;1.10;;;;;;;12.33;52.59;101033.23;105249;1253;68540;-60
2023/05/08 06:02:51;;;;;;;2.10;0.90;;;;;;;12.48;49.42;101033.39;105298;1257;74201;-56
2023/05/08 06:05:19;;;;;;;3.30;0.80;;;;;;;12.53;49.40;101028.73;105184;1253;62967;-57
2023/05/08 06:07:46;;;;;;;2.90;0.90;;;;;;;12.66;50.25;101032.52;105837;1258;62598;-57
2023/05/08 06:10:14;;;;;;;2.60;1.10;;;;;;;12.71;49.21;101032.24;105671;1253;75459;-54
2023/05/08 06:12:41;;;;;;;5.30;1.10;;;;;;;12.59;48.98;101038.32;105303;1251;69935;-60
2023/05/08 06:15:09;;;;;;;3.80;1.00;;;;;;;12.28;47.26;101035.80;105248;1258;74318;-54
2023/05/08 06:17:37;;;;;;;2.10;0.80;;;;;;;11.92;47.54;101034.50;105782;1254;61756;-55
2023/05/08 06:20:05;;;;;;;2.90;1.40;;;;;;;11.61;49.59;101038.91;105511;1253;62845;-55
2023/05/08 06:22:33;;;;;;;6.00;2.30;;;;;;;11.42;50.80;101034.59;105581;1257;75948;-59
2023/05/08 06:25:00;;;;;;;4.90;1.00;;;;;;;11.35;52.19;101039.21;105214;1252;69828;-54
2023/05/08 06:27:27;;;;;;;2.70;1.10;;;;;;;11.42;53.20;101038.99;105363;1251;75430;-55
2023/05/08 06:29:54;;;;;;;6.00;1.20;;;;;;;11.65;54.17;101036.81;105402;1257;61378;-57
2023/05/08 06:32:21;;;;;;;3.80;1.10;;;;;;;12.06;53.93;101038.50;105580;1251;62495;-55
2023/05/08 06:34:48;;;;;;;3.70;1.50;;;;;;;12.70;51.08;101035.91;105717;1256;76239;-60
2023/05/08 06:37:16;;;;;;;3.90;1.30;;;;;;;13.36;49.45;101036.80;105976;1251;68293;-57
2023/05/08 06:39:43;;;;;;;1.90;1.10;;;;;;;13.84;45.65;101033.62;105612;1258;73814;-55
2023/05/08 06:42:10;;;;;;;3.80;0.80;;;;;;;14.07;43.48;101038.05;105632;1252;62862;-55
2023/05/08 06:44:39;;;;;;;7.10;1.20;;;;;;;14.11;42.20;101040.27;105671;1251;63063;-61
2023/05/08 06:47:07;;;;;;;5.10;1.30;;;;;;;14.07;42.83;101045.80;105872;1252;76603;-57
2023/05/08 06:49:37;;;;;;;3.40;1.30;;;;;;;14.11;42.67;101039.15;105190;1257;69538;-57
2023/05/08 06:52:04;;;;;;;2.00;1.10;;;;;;;14.20;42.45;101043.91;105411;1254;74060;-55
2023/05/08 06:54:31;;;;;;;2.30;1.10;;;;;;;14.17;41.70;101043.71;105167;1253;61569;-59
2023/05/08 06:56:58;;;;;;;2.70;1.20;;;;;;;14.12;42.06;101039.23;105691;1253;61393;-59
2023/05/08 06:59:26;;;;;;;3.50;1.20;;;;;;;14.24;42.41;101041.23;105374;1253;75973;-57
2023/05/08 07:01:53;;;;;;;4.20;1.10;;;;;;;14.65;41.69;101044.25;105318;1253;69525;-56
2023/05/08 07:04:20;;;;;;;2.80;0.80;;;;;;;15.02;40.57;101042.80;105454;1254;75192;-54
2023/05/08 07:06:47;;;;;;;3.60;0.90;;;;;;;15.16;39.75;101038.92;105378;1253;61355;-53
2023/05/08 07:09:15;;;;;;;4.00;1.20;;;;;;;15.15;39.41;101041.30;105460;1255;62143;-54
2023/05/08 07:11:44;;;;;;;2.60;1.00;;;;;;;15.15;39.48;101037.21;109261;1252;76610;-54
2023/05/08 07:14:12;;;;;;;3.20;1.30;;;;;;;15.17;39.71;101033.88;109214;1253;69747;-59
2023/05/08 07:16:39;;;;;;;4.30;0.90;;;;;;;15.24;39.81;101034.08;109176;1253;74176;-55
2023/05/08 07:19:06;;;;;;;3.40;1.00;;;;;;;15.29;39.88;101031.12;106986;1253;61738;-55
2023/05/08 07:21:33;;;;;;;5.00;1.40;;;;;;;15.32;39.82;101029.38;108184;1257;61600;-55
2023/05/08 07:24:01;;;;;;;4.90;1.00;;;;;;;15.37;39.81;101030.01;105662;1252;75971;-55
2023/05/08 07:26:28;;;;;;;4.90;1.10;;;;;;;15.32;39.83;101033.02;106002;1253;69752;-54
2023/05/08 07:28:55;;;;;;;4.80;1.20;;;;;;;15.37;40.11;101036.85;105671;1254;75092;-58
2023/05/08 07:31:22;;;;;;;5.90;1.60;;;;;;;15.37;39.48;101032.94;105364;1253;63454;-54
2023/05/08 07:33:49;;;;;;;4.50;1.40;;;;;;;15.23;39.90;101031.23;105773;1257;62618;-56
2023/05/08 07:36:16;;;;;;;6.80;1.40;;;;;;;15.19;40.54;101030.50;106273;1253;75178;-61
2023/05/08 07:38:44;;;;;;;6.40;1.50;;;;;;;15.11;40.25;101025.45;105687;1257;69551;-54
2023/05/08 07:41:11;;;;;;;4.00;1.50;;;;;;;15.03;40.27;101032.67;105772;1256;73324;-55
2023/05/08 07:43:38;;;;;;;5.40;1.20;;;;;;;14.94;40.52;101033.38;105694;1253;61028;-54
2023/05/08 07:46:06;;;;;;;5.10;1.50;;;;;;;14.81;40.95;101032.45;105790;1257;61554;-54
2023/05/08 07:48:33;;;;;;;3.50;1.40;;;;;;;14.70;42.68;101034.98;105192;1253;76145;-56
2023/05/08 07:51:00;;;;;;;4.60;1.20;;;;;;;14.59;42.54;101034.88;105685;1254;69647;-57
2023/05/08 07:53:27;;;;;;;4.60;1.40;;;;;;;14.43;43.30;101026.00;105422;1255;74006;-55
2023/05/08 07:55:54;;;;;;;5.20;1.10;;;;;;;14.26;42.94;101031.83;105676;1256;61632;-56
2023/05/08 07:58:21;;;;;;;3.50;1.30;;;;;;;14.04;44.01;101031.86;105816;1253;61808;-56
2023/05/08 08:00:50;;;;;;;2.70;1.30;;;;;;;13.96;45.28;101033.15;105194;1258;74916;-56
2023/05/08 08:03:17;;;;;;;5.60;1.50;;;;;;;13.98;45.00;101029.13;105976;1258;69346;-57
2023/05/08 08:05:45;;;;;;;4.50;1.00;;;;;;;14.01;44.34;101029.52;105911;1253;74307;-56
2023/05/08 08:08:12;;;;;;;3.20;1.20;;;;;;;14.00;44.59;101034.55;106006;1254;62955;-59
2023/05/08 08:10:39;;;;;;;4.00;1.20;;;;;;;13.98;44.69;101028.38;105465;1253;62667;-57
2023/05/08 08:13:06;;;;;;;3.50;1.20;;;;;;;13.94;45.49;101033.24;105714;1253;76140;-56
2023/05/08 08:15:34;;;;;;;3.40;1.40;;;;;;;13.88;46.70;101027.70;105545;1257;69185;-56
2023/05/08 08:18:01;;;;;;;2.70;1.10;;;;;;;13.77;46.47;101028.31;105636;1256;74084;-56
2023/05/08 08:20:28;;;;;;;2.50;1.10;;;;;;;13.72;46.36;101024.79;105714;1254;62881;-58
2023/05/08 08:22:55;;;;;;;3.20;1.00;;;;;;;13.67;46.87;101024.11;105439;1254;62747;-55
2023/05/08 08:25:23;;;;;;;6.00;1.50;;;;;;;13.63;47.91;101019.35;105776;1254;76183;-61
2023/05/08 08:27:50;;;;;;;4.80;1.40;;;;;;;13.63;48.44;101024.23;105805;1257;69645;-56
2023/05/08 08:30:17;;;;;;;9.10;1.30;;;;;;;13.61;50.32;101025.84;105422;1251;73972;-56
2023/05/08 08:32:45;;;;;;;3.80;1.30;;;;;;;13.66;51.79;101029.04;105523;1257;61780;-56
2023/05/08 08:35:12;;;;;;;3.80;1.30;;;;;;;13.73;51.81;101030.32;105755;1251;61613;-56
2023/05/08 08:37:40;;;;;;;3.30;1.20;;;;;;;13.78;51.65;101034.48;106044;1251;76312;-56
2023/05/08 08:40:08;;;;;;;3.70;1.30;;;;;;;13.82;48.51;101029.70;105891;1253;69633;-56
2023/05/08 08:42:35;;;;;;;2.60;1.10;;;;;;;13.83;47.52;101028.25;105720;1256;75249;-57
2023/05/08 08:45:02;;;;;;;3.40;0.90;;;;;;;13.79;49.08;101028.27;105385;1253;62897;-56
2023/05/08 08:47:36;;;;;;;2.50;1.20;;;;;;;13.79;49.89;101023.30;105473;1259;61709;-56
2023/05/08 08:50:04;;;;;;;4.30;1.90;;;;;;;13.79;50.35;101022.09;105540;1258;76580;-55
2023/05/08 08:52:47;;;;;;;3.90;1.60;;;;;;;13.83;49.51;101023.02;105494;1258;69484;-56
2023/05/08 08:55:15;;;;;;;4.20;1.60;;;;;;;13.92;49.40;101023.02;105634;1258;75185;-56
2023/05/08 08:57:52;;;;;;;5.70;1.70;;;;;;;14.05;48.48;101021.90;105717;1258;62671;-57
2023/05/08 09:00:21;;;;;;;5.60;1.40;;;;;;;14.18;48.57;101018.91;106325;1257;63097;-56
2023/05/08 09:02:48;;;;;;;5.80;1.40;;;;;;;14.31;46.54;101017.63;105886;1257;76669;-60
2023/05/08 09:05:15;;;;;;;3.90;1.20;;;;;;;14.43;45.49;101014.50;105332;1251;69804;-56
2023/05/08 09:07:42;;;;;;;4.60;1.20;;;;;;;14.54;45.34;101011.38;105719;1259;75744;-56
2023/05/08 09:10:14;;;;;;;3.50;1.10;;;;;;;14.76;45.49;101014.88;105535;1254;61760;-56
2023/05/08 09:12:43;;;;;;;5.70;1.60;;;;;;;15.04;44.61;101011.27;105855;1256;63297;-60
2023/05/08 09:15:11;;;;;;;5.30;1.70;;;;;;;15.25;44.15;101010.68;105793;1257;75730;-57
2023/05/08 09:17:38;;;;;;;4.90;1.90;;;;;;;15.56;42.90;101008.67;105213;1258;403083;-56
2023/05/08 09:20:07;;;;;;;5.70;2.70;;;;;;;15.77;41.42;101010.61;105626;1253;75107;-56
2023/05/08 09:22:37;;;;;;;5.40;1.20;;;;;;;15.88;41.15;101012.14;106357;1253;62754;-60
2023/05/08 09:25:05;;;;;;;4.50;1.70;;;;;;;15.96;39.81;100998.98;105324;1257;61788;-56
2023/05/08 09:27:35;;;;;;;2.70;1.70;;;;;;;16.00;40.45;100996.50;105084;1254;76073;-56
2023/05/08 09:30:07;;;;;;;4.60;2.20;;;;;;;16.26;39.86;100999.56;105310;1253;70431;-56
2023/05/08 09:32:38;;;;;;;6.60;2.70;;;;;;;16.41;39.60;100994.13;105078;1256;73971;-56
2023/05/08 09:35:06;;;;;;;2.90;1.40;;;;;;;16.57;39.15;100991.73;105152;1253;63426;-53
2023/05/08 09:37:37;;;;;;;2.40;1.40;;;;;;;16.76;38.34;100993.99;105207;1253;61735;-54
2023/05/08 09:40:14;;;;;;;4.50;1.30;;;;;;;16.69;38.51;100990.92;105387;1253;75085;-55
2023/05/08 09:42:41;;;;;;;3.50;1.10;;;;;;;16.55;38.94;100996.59;105395;1259;70081;-54
2023/05/08 09:45:09;;;;;;;4.70;1.50;;;;;;;16.60;39.33;100994.85;105848;1253;74911;-54
2023/05/08 09:47:38;;;;;;;3.80;1.60;;;;;;;16.86;38.65;100988.99;105331;1258;61853;-54
2023/05/08 09:50:07;;;;;;;2.90;1.10;;;;;;;17.06;37.49;100986.27;105401;1253;62705;-57
2023/05/08 09:52:36;;;;;;;2.90;1.30;;;;;;;17.04;37.51;100984.69;105144;1260;76630;-53
2023/05/08 09:55:09;;;;;;;4.50;1.40;;;;;;;17.11;37.71;100991.40;105269;1253;69832;-54
2023/05/08 09:57:38;;;;;;;5.60;1.40;;;;;;;17.17;37.26;100987.77;105779;1258;74183;-53
2023/05/08 10:00:10;;;;;;;2.50;1.20;;;;;;;17.14;37.15;100983.84;105523;1257;61427;-54
2023/05/08 10:02:42;;;;;;;6.30;1.50;;;;;;;17.20;37.60;100984.73;105429;1253;62737;-58
2023/05/08 10:05:31;;;;;;;3.30;2.10;;;;;;;17.31;37.10;100977.95;105075;1260;76074;-54
2023/05/08 10:08:16;;;;;;;2.70;1.30;;;;;;;17.45;36.83;100983.55;105438;1256;67513;-54
2023/05/08 10:10:43;;;;;;;2.20;1.40;;;;;;;17.40;36.68;100981.52;105393;1259;73994;-55
2023/05/08 10:13:10;;;;;;;15.30;10.50;;;;;;;17.36;35.88;100979.02;105468;1256;61692;-54
2023/05/08 10:15:38;;;;;;;6.10;1.60;;;;;;;17.30;36.21;100975.45;105236;1252;62929;-54
2023/05/08 10:18:06;;;;;;;4.30;1.80;;;;;;;17.24;36.38;100973.64;105392;1254;75147;-56
2023/05/08 10:20:36;;;;;;;5.50;1.60;;;;;;;17.29;37.04;100972.36;105737;1253;69643;-55
2023/05/08 10:23:03;;;;;;;4.20;1.30;;;;;;;17.58;36.45;100973.80;105195;1256;73449;-55
2023/05/08 10:25:32;;;;;;;2.80;1.40;;;;;;;17.69;35.99;100967.89;105254;1261;62677;-60
2023/05/08 10:28:12;;;;;;;3.70;1.40;;;;;;;17.60;35.27;100962.64;105473;1256;61402;-58
2023/05/08 10:30:43;;;;;;;5.30;1.50;;;;;;;17.51;35.19;100961.14;105106;1253;75347;-56
2023/05/08 10:33:10;;;;;;;7.60;1.40;;;;;;;17.40;35.19;100967.52;105480;1258;68302;-59
2023/05/08 10:35:37;;;;;;;5.70;1.60;;;;;;;17.33;35.76;100962.09;105950;1256;76099;-55
2023/05/08 10:38:04;;;;;;;3.20;1.50;;;;;;;17.50;35.92;100961.10;105276;1253;62002;-55
2023/05/08 10:40:32;;;;;;;7.40;1.50;;;;;;;17.72;35.58;100957.55;105208;1251;61561;-54
2023/05/08 10:42:59;;;;;;;3.50;1.30;;;;;;;17.91;34.66;100950.91;105513;1256;76369;-55
2023/05/08 10:45:26;;;;;;;3.30;1.30;;;;;;;17.91;34.01;100962.87;105764;1258;69498;-55
2023/05/08 10:47:58;;;;;;;5.40;1.90;;;;;;;17.71;33.58;100955.84;105205;1253;75274;-55
2023/05/08 10:50:33;;;;;;;3.20;1.40;;;;;;;17.39;34.38;100961.41;105399;1253;62782;-55
2023/05/08 10:53:00;;;;;;;6.60;1.50;;;;;;;17.00;34.93;100967.08;105026;1253;62931;-55
2023/05/08 10:55:32;;;;;;;3.20;1.10;;;;;;;16.60;35.79;100971.33;105507;1253;76412;-58
2023/05/08 10:58:06;;;;;;;4.10;1.30;;;;;;;16.25;35.88;100968.23;105381;1260;69347;-54
2023/05/08 11:00:58;;;;;;;3.90;1.00;;;;;;;15.97;36.10;100966.20;105077;1253;74945;-54
2023/05/08 11:03:26;;;;;;;4.20;1.10;;;;;;;15.74;37.03;100971.98;105171;1258;61541;-55
2023/05/08 11:05:59;;;;;;;3.80;1.40;;;;;;;15.70;37.38;100967.21;105006;1253;61684;-55
2023/05/08 11:08:27;;;;;;;4.10;1.50;;;;;;;15.74;36.96;100969.36;105241;1258;76100;-54
2023/05/08 11:10:58;;;;;;;3.70;0.80;;;;;;;15.78;36.92;100961.23;105137;1261;68320;-55
2023/05/08 11:13:27;;;;;;;4.70;1.50;;;;;;;15.75;36.92;100958.24;105236;1256;73814;-54
2023/05/08 11:15:54;;;;;;;3.00;0.90;;;;;;;15.69;37.05;100960.18;105363;1259;62709;-55
2023/05/08 11:18:23;;;;;;;2.40;1.40;;;;;;;15.62;37.16;100954.48;105742;1253;62423;-55
2023/05/08 11:21:05;;;;;;;3.30;1.30;;;;;;;15.51;37.55;100958.61;106079;1258;76217;-60
2023/05/08 11:23:32;;;;;;;4.70;1.00;;;;;;;15.49;37.97;100952.21;105235;1258;68639;-54
2023/05/08 11:26:11;;;;;;;4.10;1.10;;;;;;;15.49;37.67;100952.09;105280;1256;74108;-54
2023/05/08 11:28:57;;;;;;;4.20;1.40;;;;;;;15.37;37.70;100951.33;105848;1252;61990;-55
2023/05/08 11:31:24;;;;;;;2.50;1.20;;;;;;;15.38;38.12;100944.98;105501;1257;61479;-55
2023/05/08 11:33:51;;;;;;;3.00;1.00;;;;;;;15.43;37.65;100944.92;105363;1258;76068;-55